createdAt,value
2018-12-24T00:00:16.901Z,37.23
2018-12-24T00:06:11.976Z,27.61
2018-12-24T00:12:07.424Z,32.08
2018-12-24T00:18:01.934Z,23.86
2018-12-24T00:23:56.917Z,29.22
2018-12-24T00:29:51.911Z,27.91
2018-12-24T00:35:46.920Z,31.03
2018-12-24T00:41:41.953Z,26.49
2018-12-24T00:47:36.916Z,19.82
2018-12-24T00:53:31.961Z,26.82
2018-12-24T00:59:26.934Z,34.98
2018-12-24T01:05:21.940Z,32.32
2018-12-24T01:11:16.941Z,30.72
2018-12-24T01:17:11.936Z,33.24
2018-12-24T01:23:06.939Z,28.58
2018-12-24T01:29:01.982Z,34.29
2018-12-24T01:34:56.950Z,32.9
2018-12-24T01:40:51.955Z,34.57
2018-12-24T01:46:46.966Z,42.57
2018-12-24T01:52:42.024Z,36.05
2018-12-24T01:58:37.050Z,35.08
2018-12-24T02:04:31.969Z,44.94
2018-12-24T02:10:26.994Z,41.83
2018-12-24T02:16:21.962Z,45.02
2018-12-24T02:22:16.993Z,44.43
2018-12-24T02:28:11.992Z,45.03
2018-12-24T02:34:06.978Z,53.23
2018-12-24T02:40:02.049Z,44.83
2018-12-24T02:45:57.000Z,49.29
2018-12-24T02:51:52.022Z,48.72
2018-12-24T02:57:47.019Z,52.68
2018-12-24T03:03:42.005Z,51.59
2018-12-24T03:09:37.002Z,46.37
2018-12-24T03:15:32.024Z,44.45
2018-12-24T03:21:27.051Z,50.52
2018-12-24T03:27:22.028Z,44.64
2018-12-24T03:33:17.055Z,42.9
2018-12-24T03:39:12.034Z,46.62
2018-12-24T03:45:07.061Z,44.07
2018-12-24T03:51:02.058Z,49.29
2018-12-24T03:56:57.042Z,47.44
2018-12-24T04:02:52.040Z,46.28
2018-12-24T04:08:47.071Z,41.57
2018-12-24T04:14:42.045Z,49.62
2018-12-24T04:20:37.087Z,53.3
2018-12-24T04:26:32.058Z,44.71
2018-12-24T04:32:27.160Z,53.71
2018-12-24T04:38:22.076Z,51.9
2018-12-24T04:44:17.074Z,48.05
2018-12-24T04:50:12.089Z,54.36
2018-12-24T04:56:07.082Z,53.92
2018-12-24T05:02:02.102Z,50.44
2018-12-24T05:07:57.123Z,53.79
2018-12-24T05:13:52.087Z,58.3
2018-12-24T05:19:47.111Z,57.88
2018-12-24T05:25:42.090Z,50.3
2018-12-24T05:31:37.103Z,55.21
2018-12-24T05:37:32.084Z,52.67
2018-12-24T05:43:27.114Z,51.07
2018-12-24T05:49:22.110Z,61.48
2018-12-24T05:55:17.095Z,50.7
2018-12-24T06:01:12.114Z,49.24
2018-12-24T06:07:07.148Z,46.04
2018-12-24T06:13:02.100Z,45.23
2018-12-24T06:18:57.163Z,47.81
2018-12-24T06:24:52.158Z,42.35
2018-12-24T06:30:47.143Z,43.65
2018-12-24T06:36:42.127Z,42.44
2018-12-24T06:42:37.131Z,41.57
2018-12-24T06:48:32.144Z,41.24
2018-12-24T06:54:27.214Z,40.46
2018-12-24T07:00:22.188Z,42.13
2018-12-24T07:06:17.151Z,40.65
2018-12-24T07:12:12.186Z,36.72
2018-12-24T07:18:07.168Z,42.93
2018-12-24T07:24:02.166Z,45.97
2018-12-24T07:29:57.154Z,45.5
2018-12-24T07:35:52.154Z,43.31
2018-12-24T07:41:47.176Z,40.91
2018-12-24T07:47:42.166Z,44.46
2018-12-24T07:53:37.181Z,46.8
2018-12-24T07:59:32.181Z,53.54
2018-12-24T08:05:27.200Z,48.51
2018-12-24T08:11:22.217Z,43.64
2018-12-24T08:17:17.234Z,33.83
2018-12-24T08:23:12.196Z,51.03
2018-12-24T08:29:07.215Z,41.04
2018-12-24T08:35:02.200Z,48.98
2018-12-24T08:40:57.210Z,53.54
2018-12-24T08:46:52.258Z,54.36
2018-12-24T08:52:47.243Z,57.62
2018-12-24T08:58:42.271Z,51.03
2018-12-24T09:04:37.235Z,55.82
2018-12-24T09:10:32.221Z,54.1
2018-12-24T09:16:27.271Z,48.58
2018-12-24T09:22:22.238Z,44.38
2018-12-24T09:28:17.233Z,42.77
2018-12-24T09:34:12.273Z,52.22
2018-12-24T09:40:07.262Z,39.36
2018-12-24T09:46:02.275Z,46.4
2018-12-24T09:51:57.269Z,39.7
2018-12-24T09:57:52.282Z,44.23
2018-12-24T10:03:47.262Z,37.61
2018-12-24T10:09:42.260Z,35.5
2018-12-24T10:15:37.285Z,36.14
2018-12-24T10:21:32.326Z,36.97
2018-12-24T10:27:27.298Z,41.35
2018-12-24T10:33:22.270Z,33.37
2018-12-24T10:39:17.283Z,43.26
2018-12-24T10:45:16.271Z,43.81
2018-12-24T10:51:07.273Z,36.23
2018-12-24T10:57:02.311Z,74.91
2018-12-24T11:02:57.290Z,54.47
2018-12-24T11:08:52.305Z,59.54
2018-12-24T11:14:47.383Z,40.78
2018-12-24T11:20:42.297Z,44.67
2018-12-24T11:26:37.337Z,45.63
2018-12-24T11:32:32.312Z,57.52
2018-12-24T11:38:27.317Z,50.34
2018-12-24T11:44:22.322Z,40.88
2018-12-24T11:50:17.373Z,36.35
2018-12-24T11:56:12.339Z,40.84
2018-12-24T12:02:10.013Z,59.8
2018-12-24T12:08:02.363Z,46.88
2018-12-24T12:13:57.341Z,71.04
2018-12-24T12:19:52.339Z,63.13
2018-12-24T12:25:47.349Z,70.65
2018-12-24T12:31:42.401Z,76.01
2018-12-24T12:37:37.378Z,68.18
2018-12-24T12:43:32.348Z,46.83
2018-12-24T12:49:27.367Z,41.79
2018-12-24T12:55:22.374Z,46.28
2018-12-24T13:01:17.378Z,52.46
2018-12-24T13:07:12.397Z,54.2
2018-12-24T13:13:07.386Z,48.57
2018-12-24T13:19:02.398Z,46.82
2018-12-24T13:24:57.380Z,37.57
2018-12-24T13:30:52.414Z,41.64
2018-12-24T13:36:47.412Z,37.95
2018-12-24T13:42:42.434Z,32.16
2018-12-24T13:48:37.407Z,32.12
2018-12-24T13:54:32.396Z,27.19
2018-12-24T14:00:27.438Z,30.85
2018-12-24T14:06:22.424Z,25.6
2018-12-24T14:12:17.468Z,34.52
2018-12-24T14:18:12.496Z,30.47
2018-12-24T14:24:07.425Z,36.03
2018-12-24T14:30:02.416Z,32.6
2018-12-24T14:35:57.424Z,31.05
2018-12-24T14:41:52.429Z,43.07
2018-12-24T14:47:47.455Z,31.36
2018-12-24T14:53:42.462Z,30.44
2018-12-24T14:59:37.455Z,46.5
2018-12-24T15:05:32.427Z,57.47
2018-12-24T15:11:27.451Z,49.07
2018-12-24T15:17:22.478Z,41.43
2018-12-24T15:23:18.681Z,31.73
2018-12-24T15:29:12.515Z,35.97
2018-12-24T15:35:07.492Z,34.92
2018-12-24T15:41:02.513Z,39.55
2018-12-24T15:46:57.534Z,30.29
2018-12-24T15:52:52.486Z,31.46
2018-12-24T15:58:47.491Z,48.13
2018-12-24T16:04:42.496Z,32.94
2018-12-24T16:16:32.503Z,34.16
2018-12-24T16:16:32.534Z,31.19
2018-12-24T16:22:47.659Z,35.24
2018-12-24T16:28:22.569Z,30.57
2018-12-24T16:34:17.560Z,25.72
2018-12-24T16:40:12.552Z,43.25
2018-12-24T16:46:07.594Z,35.55
2018-12-24T16:52:02.516Z,147.63
2018-12-24T16:57:57.511Z,50.17
2018-12-24T17:03:52.514Z,71.61
2018-12-24T17:09:47.526Z,60.97
2018-12-24T17:15:42.567Z,33.83
2018-12-24T17:21:37.535Z,30.12
2018-12-24T17:27:32.531Z,32.25
2018-12-24T17:33:27.553Z,35.02
2018-12-24T17:39:22.563Z,19.13
2018-12-24T17:45:17.537Z,27.57
2018-12-24T17:51:12.592Z,33.8
2018-12-24T17:57:07.556Z,39.88
2018-12-24T18:03:02.588Z,55.63
2018-12-24T18:08:57.594Z,27.7
2018-12-24T18:14:52.584Z,36.93
2018-12-24T18:20:47.550Z,9.58
2018-12-24T18:26:42.584Z,4.38
2018-12-24T18:32:37.701Z,2.27
2018-12-24T18:38:32.583Z,1.57
2018-12-24T18:44:27.613Z,1.68
2018-12-24T18:50:22.591Z,1.05
2018-12-24T18:56:17.587Z,1.07
2018-12-24T19:02:12.702Z,1.53
2018-12-24T19:08:07.610Z,1.36
2018-12-24T19:14:02.612Z,1.23
2018-12-24T19:19:57.649Z,1.32
2018-12-24T19:25:52.629Z,1.76
2018-12-24T19:31:47.605Z,1.6
2018-12-24T19:37:42.622Z,1.81
2018-12-24T19:43:37.627Z,1.87
2018-12-24T19:49:32.630Z,2.1
2018-12-24T19:55:27.632Z,5.09
2018-12-24T20:01:22.624Z,2.12
2018-12-24T20:07:17.642Z,5.16
2018-12-24T20:13:12.716Z,3.28
2018-12-24T20:19:07.629Z,2.63
2018-12-24T20:25:02.668Z,4.94
2018-12-24T20:30:57.629Z,2.18
2018-12-24T20:36:52.649Z,2.6
2018-12-24T20:42:47.759Z,2.37
2018-12-24T20:48:42.781Z,2
2018-12-24T20:54:38.635Z,2.36
2018-12-24T21:00:32.690Z,2.36
2018-12-24T21:06:27.674Z,2.38
2018-12-24T21:12:22.687Z,2.03
2018-12-24T21:18:17.699Z,4.55
2018-12-24T21:24:12.679Z,2.07
2018-12-24T21:30:07.678Z,4.03
2018-12-24T21:36:02.720Z,2.69
2018-12-24T21:41:57.709Z,2.4
2018-12-24T21:47:52.698Z,2.58
2018-12-24T21:53:47.688Z,4.39
2018-12-24T21:59:42.715Z,2.6
2018-12-24T22:05:37.751Z,2.58
2018-12-24T22:11:32.833Z,1.7
2018-12-24T22:17:27.712Z,11.86
2018-12-24T22:23:22.700Z,2.2
2018-12-24T22:29:20.590Z,1.94
2018-12-24T22:35:12.751Z,2.84
2018-12-24T22:41:07.703Z,2.22
2018-12-24T22:47:02.733Z,2.23
2018-12-24T22:52:57.737Z,2.08
2018-12-24T22:58:52.754Z,2.31
2018-12-24T23:04:47.725Z,4.56
2018-12-24T23:10:42.741Z,2.43
2018-12-24T23:16:37.735Z,2.21
2018-12-24T23:22:32.740Z,2.19
2018-12-24T23:28:27.760Z,1.61
2018-12-24T23:34:22.761Z,1.75
2018-12-24T23:40:17.777Z,1.87
2018-12-24T23:46:12.758Z,2.03
2018-12-24T23:52:07.755Z,1.95
2018-12-24T23:58:02.798Z,1.88
